createdAt,value
2017-02-23T00:00:00.616Z,9.26
2017-02-23T00:00:05.507Z,9.4
2017-02-23T00:00:09.875Z,9.42
2017-02-23T00:00:14.370Z,9.41
2017-02-23T00:00:19.028Z,9.38
2017-02-23T00:00:23.696Z,9.32
2017-02-23T00:00:28.350Z,9.3
2017-02-23T00:00:32.857Z,9.4
2017-02-23T00:00:37.381Z,9.4
2017-02-23T00:00:42.051Z,9.42
2017-02-23T00:00:46.706Z,9.31
2017-02-23T00:00:51.344Z,9.27
2017-02-23T00:00:55.987Z,9.4
2017-02-23T00:01:00.644Z,9.41
2017-02-23T00:01:05.310Z,9.4
2017-02-23T00:01:09.959Z,9.32
2017-02-23T00:01:14.334Z,9.4
2017-02-23T00:01:18.984Z,9.34
2017-02-23T00:01:23.615Z,9.37
2017-02-23T00:01:28.256Z,9.38
2017-02-23T00:01:32.912Z,9.38
2017-02-23T00:01:37.440Z,9.38
2017-02-23T00:01:42.090Z,9.3
2017-02-23T00:01:46.302Z,9.31
2017-02-23T00:01:50.931Z,9.38
2017-02-23T00:01:55.424Z,9.37
2017-02-23T00:01:59.931Z,9.27
2017-02-23T00:02:04.672Z,9.37
2017-02-23T00:02:09.155Z,9.38
2017-02-23T00:02:13.502Z,9.34
2017-02-23T00:02:18.153Z,9.37
2017-02-23T00:02:22.790Z,9.4
2017-02-23T00:02:27.443Z,9.35
2017-02-23T00:02:32.094Z,9.34
2017-02-23T00:02:36.741Z,9.4
2017-02-23T00:02:41.399Z,9.35
2017-02-23T00:02:46.029Z,9.32
2017-02-23T00:02:50.692Z,9.38
2017-02-23T00:02:55.321Z,9.37
2017-02-23T00:02:59.814Z,9.37
2017-02-23T00:03:04.450Z,9.34
2017-02-23T00:03:08.957Z,9.35
2017-02-23T00:03:13.603Z,9.31
2017-02-23T00:03:18.278Z,9.34
2017-02-23T00:03:22.912Z,9.34
2017-02-23T00:03:27.552Z,9.3
2017-02-23T00:03:32.202Z,9.34
2017-02-23T00:03:36.837Z,9.34
2017-02-23T00:03:41.480Z,9.27
2017-02-23T00:03:46.135Z,9.37
2017-02-23T00:03:50.788Z,9.31
2017-02-23T00:03:55.450Z,9.31
2017-02-23T00:03:59.956Z,9.31
2017-02-23T00:04:04.590Z,9.31
2017-02-23T00:04:09.242Z,9.32
2017-02-23T00:04:13.439Z,9.38
2017-02-23T00:04:17.957Z,9.31
2017-02-23T00:04:22.611Z,9.32
2017-02-23T00:04:27.232Z,9.35
2017-02-23T00:04:31.886Z,9.35
2017-02-23T00:04:36.588Z,9.27
2017-02-23T00:04:41.221Z,9.31
2017-02-23T00:04:45.563Z,9.31
2017-02-23T00:04:50.057Z,9.3
2017-02-23T00:04:54.702Z,9.26
2017-02-23T00:04:59.354Z,9.31
2017-02-23T00:05:04.159Z,9.32
2017-02-23T00:05:08.645Z,9.3
2017-02-23T00:05:13.287Z,9.24
2017-02-23T00:05:17.918Z,9.35
2017-02-23T00:05:22.566Z,9.27
2017-02-23T00:05:27.049Z,9.31
2017-02-23T00:05:31.693Z,9.27
2017-02-23T00:05:36.342Z,9.24
2017-02-23T00:05:40.840Z,9.3
2017-02-23T00:05:45.327Z,9.35
2017-02-23T00:05:49.841Z,9.22
2017-02-23T00:05:54.478Z,9.24
2017-02-23T00:05:59.120Z,9.32
2017-02-23T00:06:03.767Z,9.27
2017-02-23T00:06:08.419Z,9.26
2017-02-23T00:06:13.066Z,9.27
2017-02-23T00:06:17.606Z,9.26
2017-02-23T00:06:21.954Z,9.24
2017-02-23T00:06:26.434Z,9.32
2017-02-23T00:06:31.064Z,9.2
2017-02-23T00:06:35.696Z,9.32
2017-02-23T00:06:40.377Z,9.3
2017-02-23T00:06:45.027Z,9.26
2017-02-23T00:06:49.506Z,9.26
2017-02-23T00:06:54.148Z,9.26
2017-02-23T00:06:58.795Z,9.27
2017-02-23T00:07:03.643Z,9.3
2017-02-23T00:07:08.140Z,9.23
2017-02-23T00:07:12.640Z,9.24
2017-02-23T00:07:17.119Z,9.27
2017-02-23T00:07:21.618Z,9.24
2017-02-23T00:07:26.275Z,9.26
2017-02-23T00:07:30.933Z,9.32
2017-02-23T00:07:35.577Z,9.24
2017-02-23T00:07:40.204Z,9.24
2017-02-23T00:07:44.688Z,9.24
2017-02-23T00:07:49.339Z,9.23
2017-02-23T00:07:53.988Z,9.23
2017-02-23T00:07:58.635Z,9.23
2017-02-23T00:08:03.119Z,9.32
2017-02-23T00:08:07.457Z,9.19
2017-02-23T00:08:12.079Z,9.24
2017-02-23T00:08:16.444Z,9.32
2017-02-23T00:08:21.090Z,9.27
2017-02-23T00:08:25.721Z,9.26
2017-02-23T00:08:30.349Z,9.27
2017-02-23T00:08:35.011Z,9.23
2017-02-23T00:08:39.650Z,9.26
2017-02-23T00:08:44.139Z,9.2
2017-02-23T00:08:48.647Z,9.27
2017-02-23T00:08:53.309Z,9.24
2017-02-23T00:08:57.968Z,9.27
2017-02-23T00:09:02.502Z,9.24
2017-02-23T00:09:07.163Z,9.26
2017-02-23T00:09:11.837Z,9.32
2017-02-23T00:09:16.201Z,9.26
2017-02-23T00:09:20.849Z,9.27
2017-02-23T00:09:25.336Z,9.3
2017-02-23T00:09:29.988Z,9.3
2017-02-23T00:09:34.639Z,9.23
2017-02-23T00:09:39.294Z,9.26
2017-02-23T00:09:43.785Z,9.26
2017-02-23T00:09:48.294Z,9.22
2017-02-23T00:09:52.936Z,9.2
2017-02-23T00:09:57.586Z,9.22
2017-02-23T00:10:02.228Z,9.24
2017-02-23T00:10:06.737Z,9.23
2017-02-23T00:10:10.931Z,9.22
2017-02-23T00:10:15.581Z,9.3
2017-02-23T00:10:19.938Z,9.16
2017-02-23T00:10:24.444Z,9.22
2017-02-23T00:10:29.080Z,9.22
2017-02-23T00:10:33.722Z,9.27
2017-02-23T00:10:38.225Z,9.24
2017-02-23T00:10:42.874Z,9.23
2017-02-23T00:10:47.531Z,9.24
2017-02-23T00:10:52.187Z,9.22
2017-02-23T00:10:56.814Z,9.24
2017-02-23T00:11:01.464Z,9.26
2017-02-23T00:11:06.163Z,9.23
2017-02-23T00:11:10.655Z,9.19
2017-02-23T00:11:15.002Z,9.16
2017-02-23T00:11:19.642Z,9.24
2017-02-23T00:11:24.277Z,9.2
2017-02-23T00:11:28.914Z,9.2
2017-02-23T00:11:33.538Z,9.2
2017-02-23T00:11:38.191Z,9.23
2017-02-23T00:11:42.708Z,9.22
2017-02-23T00:11:47.056Z,9.2
2017-02-23T00:11:51.710Z,9.12
2017-02-23T00:11:56.367Z,9.23
2017-02-23T00:12:01.009Z,9.19
2017-02-23T00:12:05.605Z,9.23
2017-02-23T00:12:09.814Z,9.15
2017-02-23T00:12:14.160Z,9.22
2017-02-23T00:12:18.817Z,9.16
2017-02-23T00:12:23.312Z,9.22
2017-02-23T00:12:27.963Z,9.19
2017-02-23T00:12:32.643Z,9.23
2017-02-23T00:12:37.283Z,9.16
2017-02-23T00:12:41.769Z,9.15
2017-02-23T00:12:46.405Z,9.2
2017-02-23T00:12:51.044Z,9.23
2017-02-23T00:12:55.691Z,9.1
2017-02-23T00:13:00.321Z,9.1
2017-02-23T00:13:05.059Z,9.19
2017-02-23T00:13:09.704Z,9.13
2017-02-23T00:13:14.206Z,9.2
2017-02-23T00:13:18.854Z,9.15
2017-02-23T00:13:23.513Z,9.2
2017-02-23T00:13:28.143Z,9.19
2017-02-23T00:13:32.815Z,9.19
2017-02-23T00:13:37.460Z,9.13
2017-02-23T00:13:42.165Z,9.19
2017-02-23T00:13:46.674Z,9.1
2017-02-23T00:13:51.203Z,9.16
2017-02-23T00:13:55.863Z,9.16
2017-02-23T00:14:00.501Z,9.08
2017-02-23T00:14:05.394Z,9.16
2017-02-23T00:14:09.741Z,9.17
2017-02-23T00:14:14.127Z,9.08
2017-02-23T00:14:18.762Z,9.17
2017-02-23T00:14:23.395Z,9.13
2017-02-23T00:14:28.050Z,9.17
2017-02-23T00:14:32.690Z,9.24
2017-02-23T00:14:37.395Z,9.16
2017-02-23T00:14:42.023Z,9.17
2017-02-23T00:14:46.658Z,9.17
2017-02-23T00:14:51.007Z,9.13
2017-02-23T00:14:55.651Z,9.17
2017-02-23T00:15:00.284Z,9.15
2017-02-23T00:15:04.932Z,9.08
2017-02-23T00:15:09.417Z,9.16
2017-02-23T00:15:14.065Z,9.16
2017-02-23T00:15:18.705Z,9.19
2017-02-23T00:15:23.363Z,9.16
2017-02-23T00:15:28.007Z,9.17
2017-02-23T00:15:32.499Z,9.2
2017-02-23T00:15:37.152Z,9.2
2017-02-23T00:15:41.679Z,9.17
2017-02-23T00:15:46.165Z,9.15
2017-02-23T00:15:50.815Z,9.23
2017-02-23T00:15:55.307Z,9.08
2017-02-23T00:15:59.791Z,9.19
2017-02-23T00:16:04.545Z,9.16
2017-02-23T00:16:08.894Z,9.13
2017-02-23T00:16:13.537Z,9.13
2017-02-23T00:16:17.882Z,9.12
2017-02-23T00:16:22.541Z,9.17
2017-02-23T00:16:27.174Z,9.22
2017-02-23T00:16:31.808Z,9.22
2017-02-23T00:16:36.464Z,9.19
2017-02-23T00:16:41.132Z,9.2
2017-02-23T00:16:45.685Z,9.15
2017-02-23T00:16:50.178Z,9.23
2017-02-23T00:16:54.808Z,9.22
2017-02-23T00:16:59.465Z,9.16
2017-02-23T00:17:04.250Z,9.12
2017-02-23T00:17:08.909Z,9.15
2017-02-23T00:17:13.112Z,9.16
2017-02-23T00:17:17.757Z,9.22
2017-02-23T00:17:22.406Z,9.2
2017-02-23T00:17:27.030Z,9.17
2017-02-23T00:17:31.668Z,9.2
2017-02-23T00:17:36.320Z,9.2
2017-02-23T00:17:40.952Z,9.22
2017-02-23T00:17:45.581Z,9.19
2017-02-23T00:17:49.919Z,9.17
2017-02-23T00:17:54.590Z,9.13
2017-02-23T00:17:59.100Z,9.15
2017-02-23T00:18:03.751Z,9.24
2017-02-23T00:18:08.239Z,9.17
2017-02-23T00:18:12.736Z,9.19
2017-02-23T00:18:17.377Z,9.2
2017-02-23T00:18:22.022Z,9.24
2017-02-23T00:18:26.661Z,9.23
2017-02-23T00:18:31.315Z,9.16
2017-02-23T00:18:35.987Z,9.19
2017-02-23T00:18:40.626Z,9.23
2017-02-23T00:18:44.973Z,9.23
2017-02-23T00:18:49.499Z,9.17
2017-02-23T00:18:54.123Z,9.24
2017-02-23T00:18:58.774Z,9.22
2017-02-23T00:19:03.433Z,9.19
2017-02-23T00:19:08.071Z,9.19
2017-02-23T00:19:12.733Z,9.17
2017-02-23T00:19:17.367Z,9.24
2017-02-23T00:19:22.027Z,9.15
2017-02-23T00:19:26.671Z,9.19
2017-02-23T00:19:31.336Z,9.22
2017-02-23T00:19:35.986Z,9.2
2017-02-23T00:19:40.642Z,9.17
2017-02-23T00:19:45.144Z,9.2
2017-02-23T00:19:49.797Z,9.24
2017-02-23T00:19:54.439Z,9.23
2017-02-23T00:19:59.102Z,9.17
2017-02-23T00:20:03.803Z,9.2
2017-02-23T00:20:08.159Z,9.26
2017-02-23T00:20:12.536Z,9.13
2017-02-23T00:20:17.033Z,9.23
2017-02-23T00:20:21.688Z,9.23
2017-02-23T00:20:26.353Z,9.22
2017-02-23T00:20:31.033Z,9.2
2017-02-23T00:20:35.662Z,9.2
2017-02-23T00:20:40.310Z,9.22
2017-02-23T00:20:44.815Z,9.2
2017-02-23T00:20:49.297Z,9.16
2017-02-23T00:20:53.951Z,9.17
2017-02-23T00:20:58.444Z,9.13
2017-02-23T00:21:03.336Z,9.23
2017-02-23T00:21:07.967Z,9.24
2017-02-23T00:21:12.330Z,9.24
2017-02-23T00:21:16.961Z,9.24
2017-02-23T00:21:21.657Z,9.24
2017-02-23T00:21:26.314Z,9.16
2017-02-23T00:21:30.957Z,9.17
2017-02-23T00:21:35.608Z,9.16
2017-02-23T00:21:40.267Z,9.17
2017-02-23T00:21:44.765Z,9.23
2017-02-23T00:21:49.407Z,9.24
2017-02-23T00:21:54.033Z,9.22
2017-02-23T00:21:58.515Z,9.2
2017-02-23T00:22:03.149Z,9.2
2017-02-23T00:22:07.636Z,9.23
2017-02-23T00:22:11.996Z,9.27
2017-02-23T00:22:16.350Z,9.24
2017-02-23T00:22:20.988Z,9.17
2017-02-23T00:22:25.484Z,9.16
2017-02-23T00:22:30.140Z,9.22
2017-02-23T00:22:34.779Z,9.2
2017-02-23T00:22:39.435Z,9.26
2017-02-23T00:22:43.924Z,9.17
2017-02-23T00:22:48.437Z,9.19
2017-02-23T00:22:53.068Z,9.19
2017-02-23T00:22:57.587Z,9.23
2017-02-23T00:23:02.279Z,9.24
2017-02-23T00:23:06.765Z,9.27
2017-02-23T00:23:11.272Z,9.23
2017-02-23T00:23:15.924Z,9.16
2017-02-23T00:23:20.558Z,9.2
2017-02-23T00:23:25.194Z,9.22
2017-02-23T00:23:29.850Z,9.23
2017-02-23T00:23:34.501Z,9.23
2017-02-23T00:23:39.147Z,9.23
2017-02-23T00:23:43.801Z,9.19
2017-02-23T00:23:48.427Z,9.19
2017-02-23T00:23:53.075Z,9.22
2017-02-23T00:23:57.565Z,9.19
2017-02-23T00:24:02.298Z,9.24
2017-02-23T00:24:06.922Z,9.19
2017-02-23T00:24:11.280Z,9.22
2017-02-23T00:24:15.921Z,9.2
2017-02-23T00:24:20.606Z,9.22
2017-02-23T00:24:25.268Z,9.17
2017-02-23T00:24:29.904Z,9.22
2017-02-23T00:24:34.415Z,9.2
2017-02-23T00:24:39.048Z,9.16
2017-02-23T00:24:43.545Z,9.23
2017-02-23T00:24:48.209Z,9.23
2017-02-23T00:24:52.694Z,9.15
2017-02-23T00:24:57.330Z,9.2
2017-02-23T00:25:01.981Z,9.17
2017-02-23T00:25:06.492Z,9.17
2017-02-23T00:25:11.128Z,9.2
2017-02-23T00:25:15.488Z,9.17
2017-02-23T00:25:20.116Z,9.19
2017-02-23T00:25:24.746Z,9.23
2017-02-23T00:25:29.386Z,9.24
2017-02-23T00:25:34.050Z,9.2
2017-02-23T00:25:38.760Z,9.17
2017-02-23T00:25:43.256Z,9.17
2017-02-23T00:25:47.750Z,9.13
2017-02-23T00:25:52.251Z,9.17
2017-02-23T00:25:56.893Z,9.23
2017-02-23T00:26:01.778Z,9.26
2017-02-23T00:26:06.416Z,9.13
2017-02-23T00:26:10.912Z,9.22
2017-02-23T00:26:15.570Z,9.22
2017-02-23T00:26:20.220Z,9.24
2017-02-23T00:26:24.863Z,9.13
2017-02-23T00:26:29.504Z,9.17
2017-02-23T00:26:34.136Z,9.16
2017-02-23T00:26:38.783Z,9.19
2017-02-23T00:26:43.279Z,9.12
2017-02-23T00:26:47.779Z,9.13
2017-02-23T00:26:52.426Z,9.16
2017-02-23T00:26:57.053Z,9.2
2017-02-23T00:27:01.998Z,9.19
2017-02-23T00:27:06.472Z,9.19
2017-02-23T00:27:10.961Z,9.08
2017-02-23T00:27:15.306Z,9.08
2017-02-23T00:27:19.955Z,9.15
2017-02-23T00:27:24.606Z,9.15
2017-02-23T00:27:29.088Z,9.13
2017-02-23T00:27:33.712Z,9.23
2017-02-23T00:27:38.345Z,9.19
2017-02-23T00:27:42.828Z,9.12
2017-02-23T00:27:47.327Z,9.19
2017-02-23T00:27:51.976Z,9.24
2017-02-23T00:27:56.515Z,9.1
2017-02-23T00:28:01.167Z,9.16
2017-02-23T00:28:05.836Z,9.17
2017-02-23T00:28:10.493Z,9.08
2017-02-23T00:28:15.008Z,9.08
2017-02-23T00:28:19.656Z,9.2
2017-02-23T00:28:24.160Z,9.15
2017-02-23T00:28:28.814Z,9.22
2017-02-23T00:28:33.496Z,9.16
2017-02-23T00:28:38.135Z,9.17
2017-02-23T00:28:42.788Z,9.22
2017-02-23T00:28:47.278Z,9.1
2017-02-23T00:28:51.757Z,9.17
2017-02-23T00:28:56.127Z,9.2
2017-02-23T00:29:00.816Z,9.23
2017-02-23T00:29:05.713Z,9.19
2017-02-23T00:29:10.078Z,9.08
2017-02-23T00:29:14.277Z,9.17
2017-02-23T00:29:18.926Z,9.23
2017-02-23T00:29:23.565Z,9.1
2017-02-23T00:29:28.207Z,9.12
2017-02-23T00:29:32.855Z,9.12
2017-02-23T00:29:37.354Z,9.23
2017-02-23T00:29:41.996Z,9.15
2017-02-23T00:29:46.641Z,9.2
2017-02-23T00:29:50.992Z,9.12
2017-02-23T00:29:55.629Z,9.16
2017-02-23T00:30:00.116Z,9.1
2017-02-23T00:30:04.618Z,9.13
2017-02-23T00:30:08.954Z,9.16
2017-02-23T00:30:13.308Z,9.2
2017-02-23T00:30:17.663Z,9.19
2017-02-23T00:30:22.318Z,9.04
2017-02-23T00:30:26.955Z,9.12
2017-02-23T00:30:31.583Z,9.16
2017-02-23T00:30:36.241Z,9.19
2017-02-23T00:30:40.767Z,9.13
2017-02-23T00:30:45.400Z,9.12
2017-02-23T00:30:49.910Z,9.12
2017-02-23T00:30:54.586Z,9.23
2017-02-23T00:30:59.245Z,9.12
2017-02-23T00:31:03.905Z,9.22
2017-02-23T00:31:08.396Z,9.16
2017-02-23T00:31:12.900Z,9.08
2017-02-23T00:31:17.395Z,9.16
2017-02-23T00:31:22.034Z,9.08
2017-02-23T00:31:26.682Z,9.1
2017-02-23T00:31:31.332Z,9.22
2017-02-23T00:31:35.961Z,9.23
2017-02-23T00:31:40.610Z,9.22
2017-02-23T00:31:44.806Z,9.16
2017-02-23T00:31:49.294Z,9.1
2017-02-23T00:31:53.942Z,9.16
2017-02-23T00:31:58.424Z,9.19
2017-02-23T00:32:03.080Z,9.23
2017-02-23T00:32:07.438Z,9.2
2017-02-23T00:32:11.777Z,9.15
2017-02-23T00:32:16.411Z,9.2
2017-02-23T00:32:21.093Z,9.2
2017-02-23T00:32:25.724Z,9.1
2017-02-23T00:32:30.351Z,9.15
2017-02-23T00:32:35.012Z,9.2
2017-02-23T00:32:39.637Z,9.13
2017-02-23T00:32:43.984Z,9.2
2017-02-23T00:32:48.490Z,9.13
2017-02-23T00:32:53.121Z,9.16
2017-02-23T00:32:57.625Z,9.2
2017-02-23T00:33:02.270Z,9.17
2017-02-23T00:33:06.943Z,9.17
2017-02-23T00:33:11.429Z,9.22
2017-02-23T00:33:15.923Z,9.24
2017-02-23T00:33:20.570Z,9.19
2017-02-23T00:33:25.226Z,9.16
2017-02-23T00:33:29.859Z,9.19
2017-02-23T00:33:34.494Z,9.2
2017-02-23T00:33:39.149Z,9.26
2017-02-23T00:33:43.641Z,9.23
2017-02-23T00:33:48.295Z,9.24
2017-02-23T00:33:52.935Z,9.27
2017-02-23T00:33:57.574Z,9.24
2017-02-23T00:34:01.932Z,9.23
2017-02-23T00:34:06.580Z,9.24
2017-02-23T00:34:10.950Z,9.22
2017-02-23T00:34:15.578Z,9.27
2017-02-23T00:34:20.239Z,9.24
2017-02-23T00:34:24.721Z,9.26
2017-02-23T00:34:29.405Z,9.26
2017-02-23T00:34:34.053Z,9.26
2017-02-23T00:34:38.688Z,9.26
2017-02-23T00:34:43.192Z,9.24
2017-02-23T00:34:47.707Z,9.27
2017-02-23T00:34:52.360Z,9.2
2017-02-23T00:34:56.852Z,9.26
2017-02-23T00:35:01.206Z,9.26
2017-02-23T00:35:05.847Z,9.24
2017-02-23T00:35:10.493Z,9.3
2017-02-23T00:35:15.127Z,9.26
2017-02-23T00:35:19.780Z,9.31
2017-02-23T00:35:24.417Z,9.2
2017-02-23T00:35:29.045Z,9.26
2017-02-23T00:35:33.677Z,9.17
2017-02-23T00:35:38.304Z,9.26
2017-02-23T00:35:42.799Z,9.17
2017-02-23T00:35:47.441Z,9.24
2017-02-23T00:35:51.788Z,9.26
2017-02-23T00:35:56.430Z,9.3
2017-02-23T00:36:01.075Z,9.26
2017-02-23T00:36:05.709Z,9.26
2017-02-23T00:36:10.217Z,9.3
2017-02-23T00:36:14.714Z,9.3
2017-02-23T00:36:19.381Z,9.3
2017-02-23T00:36:24.027Z,9.23
2017-02-23T00:36:28.543Z,9.26
2017-02-23T00:36:33.180Z,9.3
2017-02-23T00:36:37.833Z,9.24
2017-02-23T00:36:42.476Z,9.37
2017-02-23T00:36:47.110Z,9.19
2017-02-23T00:36:51.766Z,9.26
2017-02-23T00:36:56.389Z,9.17
2017-02-23T00:37:00.898Z,9.27
2017-02-23T00:37:05.527Z,9.27
2017-02-23T00:37:10.038Z,9.26
2017-02-23T00:37:14.391Z,9.23
2017-02-23T00:37:19.034Z,9.23
2017-02-23T00:37:23.686Z,9.26
2017-02-23T00:37:28.333Z,9.2
2017-02-23T00:37:32.981Z,9.17
2017-02-23T00:37:37.639Z,9.32
2017-02-23T00:37:42.292Z,9.3
2017-02-23T00:37:46.933Z,9.3
2017-02-23T00:37:51.444Z,9.26
2017-02-23T00:37:56.097Z,9.31
2017-02-23T00:38:00.730Z,9.34
2017-02-23T00:38:05.660Z,9.31
2017-02-23T00:38:10.161Z,9.31
2017-02-23T00:38:14.655Z,9.27
2017-02-23T00:38:19.347Z,9.32
2017-02-23T00:38:23.993Z,9.32
2017-02-23T00:38:28.639Z,9.35
2017-02-23T00:38:33.278Z,9.35
2017-02-23T00:38:37.924Z,9.31
2017-02-23T00:38:42.612Z,9.32
2017-02-23T00:38:47.097Z,9.3
2017-02-23T00:38:51.781Z,9.32
2017-02-23T00:38:56.269Z,9.32
2017-02-23T00:39:00.919Z,9.32
2017-02-23T00:39:05.603Z,9.27
2017-02-23T00:39:10.257Z,9.27
2017-02-23T00:39:14.595Z,9.3
2017-02-23T00:39:19.242Z,9.35
2017-02-23T00:39:23.877Z,9.37
2017-02-23T00:39:28.529Z,9.38
2017-02-23T00:39:33.167Z,9.32
2017-02-23T00:39:37.814Z,9.4
2017-02-23T00:39:42.159Z,9.31
2017-02-23T00:39:46.669Z,9.3
2017-02-23T00:39:51.162Z,9.34
2017-02-23T00:39:55.834Z,9.32
2017-02-23T00:40:00.341Z,9.3
2017-02-23T00:40:04.689Z,9.31
2017-02-23T00:40:09.195Z,9.34
2017-02-23T00:40:13.399Z,9.4
2017-02-23T00:40:17.762Z,9.34
2017-02-23T00:40:22.412Z,9.31
2017-02-23T00:40:27.049Z,9.35
2017-02-23T00:40:31.691Z,9.31
2017-02-23T00:40:36.349Z,9.34
2017-02-23T00:40:41.035Z,9.41
2017-02-23T00:40:45.535Z,9.34
2017-02-23T00:40:50.034Z,9.34
2017-02-23T00:40:54.673Z,9.34
2017-02-23T00:40:59.182Z,9.34
2017-02-23T00:41:04.180Z,9.35
2017-02-23T00:41:08.669Z,9.37
2017-02-23T00:41:13.197Z,9.3
2017-02-23T00:41:17.694Z,9.34
2017-02-23T00:41:22.333Z,9.41
2017-02-23T00:41:26.970Z,9.35
2017-02-23T00:41:31.602Z,9.34
2017-02-23T00:41:36.245Z,9.31
2017-02-23T00:41:40.885Z,9.32
2017-02-23T00:41:45.526Z,9.42
2017-02-23T00:41:50.028Z,9.35
2017-02-23T00:41:54.655Z,9.34
2017-02-23T00:41:59.146Z,9.35
2017-02-23T00:42:03.798Z,9.4
2017-02-23T00:42:08.334Z,9.41
2017-02-23T00:42:12.835Z,9.34
2017-02-23T00:42:17.319Z,9.44
2017-02-23T00:42:21.826Z,9.35
2017-02-23T00:42:26.464Z,9.38
2017-02-23T00:42:31.118Z,9.38
2017-02-23T00:42:35.782Z,9.44
2017-02-23T00:42:40.431Z,9.35
2017-02-23T00:42:44.776Z,9.35
2017-02-23T00:42:49.270Z,9.48
2017-02-23T00:42:53.908Z,9.48
2017-02-23T00:42:58.539Z,9.5
2017-02-23T00:43:03.193Z,9.48
2017-02-23T00:43:07.695Z,9.42
2017-02-23T00:43:12.184Z,9.45
2017-02-23T00:43:16.690Z,9.31
2017-02-23T00:43:21.349Z,9.45
2017-02-23T00:43:25.861Z,9.42
2017-02-23T00:43:30.518Z,9.5
2017-02-23T00:43:35.006Z,9.45
2017-02-23T00:43:39.644Z,9.42
2017-02-23T00:43:44.143Z,9.42
2017-02-23T00:43:48.634Z,9.42
2017-02-23T00:43:53.266Z,9.45
2017-02-23T00:43:57.936Z,9.42
2017-02-23T00:44:02.589Z,9.44
2017-02-23T00:44:06.957Z,9.5
2017-02-23T00:44:11.150Z,9.4
2017-02-23T00:44:15.379Z,9.44
2017-02-23T00:44:20.028Z,9.45
2017-02-23T00:44:24.662Z,9.41
2017-02-23T00:44:29.301Z,9.44
2017-02-23T00:44:33.961Z,9.44
2017-02-23T00:44:38.598Z,9.5
2017-02-23T00:44:43.255Z,9.38
2017-02-23T00:44:47.769Z,9.49
2017-02-23T00:44:52.255Z,9.44
2017-02-23T00:44:56.750Z,9.41
2017-02-23T00:45:01.394Z,9.48
2017-02-23T00:45:06.038Z,9.44
2017-02-23T00:45:10.678Z,9.5
2017-02-23T00:45:15.188Z,9.53
2017-02-23T00:45:19.839Z,9.48
2017-02-23T00:45:24.516Z,9.52
2017-02-23T00:45:29.160Z,9.45
2017-02-23T00:45:33.658Z,9.48
2017-02-23T00:45:38.331Z,9.49
2017-02-23T00:45:42.970Z,9.48
2017-02-23T00:45:47.614Z,9.5
2017-02-23T00:45:52.282Z,9.48
2017-02-23T00:45:56.926Z,9.45
2017-02-23T00:46:01.600Z,9.48
2017-02-23T00:46:06.091Z,9.48
2017-02-23T00:46:10.428Z,9.45
2017-02-23T00:46:14.781Z,9.49
2017-02-23T00:46:19.425Z,9.44
2017-02-23T00:46:24.056Z,9.45
2017-02-23T00:46:28.708Z,9.48
2017-02-23T00:46:33.206Z,9.41
2017-02-23T00:46:37.869Z,9.45
2017-02-23T00:46:42.503Z,9.41
2017-02-23T00:46:47.009Z,9.38
2017-02-23T00:46:51.633Z,9.45
2017-02-23T00:46:56.178Z,9.44
2017-02-23T00:47:00.818Z,9.41
2017-02-23T00:47:05.657Z,9.48
2017-02-23T00:47:10.295Z,9.52
2017-02-23T00:47:14.508Z,9.5
2017-02-23T00:47:19.173Z,9.42
2017-02-23T00:47:23.813Z,9.44
2017-02-23T00:47:28.452Z,9.48
2017-02-23T00:47:33.105Z,9.44
2017-02-23T00:47:37.768Z,9.5
2017-02-23T00:47:42.408Z,9.31
2017-02-23T00:47:46.903Z,9.34
2017-02-23T00:47:51.556Z,9.41
2017-02-23T00:47:56.071Z,9.41
2017-02-23T00:48:00.714Z,9.45
2017-02-23T00:48:05.399Z,9.44
2017-02-23T00:48:09.742Z,9.37
2017-02-23T00:48:14.099Z,9.44
2017-02-23T00:48:18.752Z,9.41
2017-02-23T00:48:23.380Z,9.44
2017-02-23T00:48:28.009Z,9.4
2017-02-23T00:48:32.656Z,9.44
2017-02-23T00:48:37.298Z,9.44
2017-02-23T00:48:41.972Z,9.27
2017-02-23T00:48:46.637Z,9.4
2017-02-23T00:48:50.973Z,9.35
2017-02-23T00:48:55.608Z,9.45
2017-02-23T00:49:00.115Z,9.35
2017-02-23T00:49:04.819Z,9.34
2017-02-23T00:49:09.306Z,9.34
2017-02-23T00:49:13.788Z,9.37
2017-02-23T00:49:18.414Z,9.34
2017-02-23T00:49:23.055Z,9.38
2017-02-23T00:49:27.688Z,9.35
2017-02-23T00:49:32.333Z,9.37
2017-02-23T00:49:36.974Z,9.38
2017-02-23T00:49:41.601Z,9.32
2017-02-23T00:49:46.083Z,9.37
2017-02-23T00:49:50.577Z,9.34
2017-02-23T00:49:54.930Z,9.35
2017-02-23T00:49:59.425Z,9.38
2017-02-23T00:50:04.121Z,9.32
2017-02-23T00:50:08.624Z,9.41
2017-02-23T00:50:12.984Z,9.35
2017-02-23T00:50:17.461Z,9.34
2017-02-23T00:50:22.093Z,9.37
2017-02-23T00:50:26.734Z,9.32
2017-02-23T00:50:31.374Z,9.32
2017-02-23T00:50:36.009Z,9.37
2017-02-23T00:50:40.652Z,9.31
2017-02-23T00:50:45.312Z,9.37
2017-02-23T00:50:49.984Z,9.34
2017-02-23T00:50:54.473Z,9.34
2017-02-23T00:50:59.097Z,9.3
2017-02-23T00:51:03.738Z,9.35
2017-02-23T00:51:08.388Z,9.37
2017-02-23T00:51:12.884Z,9.27
2017-02-23T00:51:17.519Z,9.31
2017-02-23T00:51:22.167Z,9.34
2017-02-23T00:51:26.818Z,9.42
2017-02-23T00:51:31.464Z,9.38
2017-02-23T00:51:36.112Z,9.31
2017-02-23T00:51:40.755Z,9.34
2017-02-23T00:51:45.381Z,9.3
2017-02-23T00:51:50.022Z,9.32
2017-02-23T00:51:54.651Z,9.3
2017-02-23T00:51:59.150Z,9.4
2017-02-23T00:52:04.086Z,9.3
2017-02-23T00:52:08.753Z,9.34
2017-02-23T00:52:13.243Z,9.27
2017-02-23T00:52:17.743Z,9.38
2017-02-23T00:52:22.390Z,9.35
2017-02-23T00:52:27.036Z,9.38
2017-02-23T00:52:31.674Z,9.27
2017-02-23T00:52:36.331Z,9.37
2017-02-23T00:52:40.978Z,9.34
2017-02-23T00:52:45.628Z,9.3
2017-02-23T00:52:50.134Z,9.37
2017-02-23T00:52:54.777Z,9.34
2017-02-23T00:52:59.133Z,9.38
2017-02-23T00:53:03.879Z,9.38
2017-02-23T00:53:08.514Z,9.4
2017-02-23T00:53:12.875Z,9.37
2017-02-23T00:53:17.363Z,9.37
2017-02-23T00:53:21.865Z,9.35
2017-02-23T00:53:26.493Z,9.35
2017-02-23T00:53:31.143Z,9.32
2017-02-23T00:53:35.800Z,9.31
2017-02-23T00:53:40.421Z,9.27
2017-02-23T00:53:45.073Z,9.31
2017-02-23T00:53:49.577Z,9.3
2017-02-23T00:53:54.090Z,9.35
2017-02-23T00:53:58.715Z,9.31
2017-02-23T00:54:03.364Z,9.35
2017-02-23T00:54:07.727Z,9.32
2017-02-23T00:54:12.231Z,9.32
2017-02-23T00:54:16.881Z,9.32
2017-02-23T00:54:21.820Z,9.27
2017-02-23T00:54:26.458Z,9.32
2017-02-23T00:54:31.115Z,9.3
2017-02-23T00:54:35.746Z,9.24
2017-02-23T00:54:40.416Z,9.27
2017-02-23T00:54:45.060Z,9.35
2017-02-23T00:54:49.711Z,9.34
2017-02-23T00:54:54.355Z,9.22
2017-02-23T00:54:59.011Z,9.34
2017-02-23T00:55:03.503Z,9.24
2017-02-23T00:55:08.010Z,9.24
2017-02-23T00:55:12.524Z,9.32
2017-02-23T00:55:16.870Z,9.31
2017-02-23T00:55:21.520Z,9.35
2017-02-23T00:55:26.160Z,9.34
2017-02-23T00:55:30.800Z,9.23
2017-02-23T00:55:35.459Z,9.26
2017-02-23T00:55:40.093Z,9.22
2017-02-23T00:55:44.726Z,9.27
2017-02-23T00:55:49.216Z,9.26
2017-02-23T00:55:53.868Z,9.32
2017-02-23T00:55:58.410Z,9.24
2017-02-23T00:56:03.064Z,9.24
2017-02-23T00:56:07.698Z,9.23
2017-02-23T00:56:11.764Z,9.32
2017-02-23T00:56:16.124Z,9.3
2017-02-23T00:56:20.657Z,9.24
2017-02-23T00:56:25.184Z,9.24
2017-02-23T00:56:29.812Z,9.35
2017-02-23T00:56:34.310Z,9.24
2017-02-23T00:56:38.821Z,9.27
2017-02-23T00:56:43.471Z,9.27
2017-02-23T00:56:47.960Z,9.32
2017-02-23T00:56:52.620Z,9.27
2017-02-23T00:56:57.110Z,9.27
2017-02-23T00:57:01.758Z,9.31
2017-02-23T00:57:06.409Z,9.2
2017-02-23T00:57:10.896Z,9.22
2017-02-23T00:57:15.582Z,9.35
2017-02-23T00:57:20.224Z,9.3
2017-02-23T00:57:24.724Z,9.26
2017-02-23T00:57:29.353Z,9.34
2017-02-23T00:57:34.005Z,9.23
2017-02-23T00:57:38.641Z,9.22
2017-02-23T00:57:43.293Z,9.31
2017-02-23T00:57:47.932Z,9.26
2017-02-23T00:57:52.563Z,9.3
2017-02-23T00:57:57.208Z,9.24
2017-02-23T00:58:01.859Z,9.19
2017-02-23T00:58:06.352Z,9.3
2017-02-23T00:58:10.695Z,9.27
2017-02-23T00:58:15.179Z,9.31
2017-02-23T00:58:19.815Z,9.32
2017-02-23T00:58:24.305Z,9.27
2017-02-23T00:58:28.942Z,9.2
2017-02-23T00:58:33.594Z,9.27
2017-02-23T00:58:38.232Z,9.23
2017-02-23T00:58:42.720Z,9.26
2017-02-23T00:58:47.205Z,9.3
2017-02-23T00:58:51.854Z,9.17
2017-02-23T00:58:56.486Z,9.31
2017-02-23T00:59:01.131Z,9.27
2017-02-23T00:59:05.779Z,9.17
2017-02-23T00:59:10.425Z,9.26
2017-02-23T00:59:14.913Z,9.35
2017-02-23T00:59:19.552Z,9.35
2017-02-23T00:59:24.067Z,9.27
2017-02-23T00:59:28.704Z,9.32
2017-02-23T00:59:33.341Z,9.32
2017-02-23T00:59:37.979Z,9.31
2017-02-23T00:59:42.501Z,9.27
2017-02-23T00:59:46.902Z,9.27
2017-02-23T00:59:51.559Z,9.27
2017-02-23T00:59:56.061Z,9.27
2017-02-23T01:00:00.713Z,9.23
2017-02-23T01:00:05.722Z,9.26
2017-02-23T01:00:10.395Z,9.24
2017-02-23T01:00:14.885Z,9.27
2017-02-23T01:00:19.386Z,9.26
2017-02-23T01:00:24.020Z,9.32
2017-02-23T01:00:28.670Z,9.24
2017-02-23T01:00:33.311Z,9.24
2017-02-23T01:00:37.948Z,9.23
2017-02-23T01:00:42.601Z,9.24
2017-02-23T01:00:47.108Z,9.3
2017-02-23T01:00:51.772Z,9.24
2017-02-23T01:00:56.399Z,9.3
2017-02-23T01:01:01.037Z,9.23
2017-02-23T01:01:06.033Z,9.26
2017-02-23T01:01:10.699Z,9.23
2017-02-23T01:01:15.068Z,9.2
2017-02-23T01:01:19.569Z,9.3